< < Back
Terminal Aerodrome Forecast


Current Version              Previous Versions:   1  2  3  4  5  6  7  8  9  

Terminal Aerodrome Forecast

123
FTUS42 KILM 251120
TAFFLO
TAF
KFLO 251120Z 2512/2612 00000KT 1 1/2SM BR SCT040
      TEMPO 2512/2513 6SM BR
     FM251300 08006KT P6SM VCSH BKN020 BKN050
     FM260100 07005KT P6SM SCT010 BKN025=

Latest METAR

196
SAUS70 KWBC 252156
MTRFLO
METAR KFLO 252153Z 11006KT 10SM CLR 30/21 A3005 RMK AO2 SLP172
T03000206


USA.gov is the U.S. government's official web portal to all federal, state and local government web resources and services.